LIPC

Cervia Air Force Base Airport

Cervia, Italy
TAF LIPC 151100Z 1512/1521 02005KT 4000 BR BKN010 BECMG 1516/1518 1500 BCFG SCT005 BKN010
Issued Valid From Valid To
Nov-15 @ 11:00 UTC
(2 hours ago)
Nov-15 @ 12:00 UTC
(44 minutes ago)
Nov-15 @ 21:00 UTC
(in 8 hours)
Nov-15 @ 12:00 to Nov-15 @ 16:00
TAF LIPC 151100Z 1512/1521 02005KT 4000 BR BKN010
Wind Visibility Clouds Conditions
20° at 5 knots 4,007 meters
  • Broken at 1,000' AGL
  • Mist
Becoming Nov-15 @ 16:00 to Nov-15 @ 21:00
BECMG 1516/1518 1500 BCFG SCT005 BKN010
Wind Visibility Clouds Conditions
20° at 5 knots 1,497 meters
  • Scattered at 500' AGL
  • Broken at 1,000' AGL
  • Patches of
  • Fog
TAF LIPC 151100Z 1512/1521 02005KT 4000 BR BKN010 BECMG 1516/1518 1500 BCFG SCT005 BKN010
Issued Nov-15 @ 11:00 UTC
(2 hours ago)
Valid From Nov-15 @ 12:00 UTC
(44 minutes ago)
Valid To Nov-15 @ 21:00 UTC
(in 8 hours)
Nov-15 @ 12:00 - Nov-15 @ 16:00
Wind Visibility
20° at 5 knots 4,007 meters
Clouds
  • Broken at 1,000' AGL
Conditions
  • Mist
Becoming Nov-15 @ 16:00 - Nov-15 @ 21:00
Wind Visibility
20° at 5 knots 1,497 meters
Clouds
  • Scattered at 500' AGL
  • Broken at 1,000' AGL
Conditions
  • Patches of
  • Fog